createdAt,value
2017-12-28T12:43:55.464Z,360.00
2017-12-28T12:43:55.981Z,360.00
2017-12-28T12:43:56.506Z,365.63
2017-12-28T12:43:57.010Z,365.63
2017-12-28T12:43:57.676Z,365.63
2017-12-28T12:43:58.284Z,365.63
2017-12-28T12:43:58.793Z,365.63
2017-12-28T12:43:59.268Z,365.63
2017-12-28T12:43:59.977Z,365.63
2017-12-28T12:44:00.598Z,371.25
2017-12-28T12:44:01.089Z,371.25
2017-12-28T12:44:01.630Z,371.25
2017-12-28T12:44:01.960Z,376.88
2017-12-28T12:44:02.640Z,376.88
2017-12-28T12:44:03.273Z,376.88
2017-12-28T12:44:03.774Z,382.50
2017-12-28T12:44:04.334Z,382.50
2017-12-28T12:44:04.826Z,382.50
2017-12-28T12:44:05.349Z,382.50
2017-12-28T12:44:05.907Z,382.50
2017-12-28T12:44:06.411Z,382.50
2017-12-28T12:44:06.920Z,382.50
2017-12-28T12:44:07.433Z,388.13
2017-12-28T12:44:07.976Z,388.13
2017-12-28T12:44:08.487Z,393.75
2017-12-28T12:44:09.016Z,393.75
2017-12-28T12:44:09.597Z,399.38
2017-12-28T12:44:10.135Z,399.38
2017-12-28T12:44:10.722Z,399.38
2017-12-28T12:44:11.212Z,405.00
2017-12-28T12:44:11.768Z,405.00
2017-12-28T12:44:12.252Z,405.00
2017-12-28T12:44:12.804Z,405.00
2017-12-28T12:44:13.318Z,405.00
2017-12-28T12:44:13.844Z,405.00
2017-12-28T12:44:14.354Z,405.00
2017-12-28T12:44:14.880Z,410.63
2017-12-28T12:44:15.393Z,410.63
2017-12-28T12:44:15.931Z,410.63
2017-12-28T12:44:16.458Z,410.63
2017-12-28T12:44:16.970Z,410.63
2017-12-28T12:44:17.492Z,410.63
2017-12-28T12:44:18.020Z,410.63
2017-12-28T12:44:18.562Z,410.63
2017-12-28T12:44:19.081Z,416.25
2017-12-28T12:44:19.606Z,416.25
2017-12-28T12:44:20.136Z,416.25
2017-12-28T12:44:20.648Z,416.25
2017-12-28T12:44:21.160Z,421.88
2017-12-28T12:44:21.696Z,416.25
2017-12-28T12:44:22.200Z,416.25
2017-12-28T12:44:22.740Z,416.25
2017-12-28T12:44:23.244Z,410.63
2017-12-28T12:44:23.770Z,421.88
2017-12-28T12:44:24.300Z,421.88
2017-12-28T12:44:24.812Z,421.88
2017-12-28T12:44:25.352Z,421.88
2017-12-28T12:44:25.880Z,421.88
2017-12-28T12:44:26.400Z,433.13
2017-12-28T12:44:26.932Z,444.38
2017-12-28T12:44:27.448Z,444.38
2017-12-28T12:44:27.974Z,444.38
2017-12-28T12:44:28.490Z,444.38
2017-12-28T12:44:29.020Z,433.13
2017-12-28T12:44:29.577Z,433.13
2017-12-28T12:44:30.102Z,433.13
2017-12-28T12:44:30.642Z,421.88
2017-12-28T12:44:31.176Z,421.88
2017-12-28T12:44:31.700Z,421.88
2017-12-28T12:44:32.261Z,427.50
2017-12-28T12:44:32.780Z,427.50
2017-12-28T12:44:33.330Z,427.50
2017-12-28T12:44:33.860Z,427.50
2017-12-28T12:44:34.388Z,433.13
2017-12-28T12:44:34.924Z,433.13
2017-12-28T12:44:35.455Z,433.13
2017-12-28T12:44:35.970Z,438.75
2017-12-28T12:44:36.490Z,438.75
2017-12-28T12:44:37.020Z,438.75
2017-12-28T12:44:37.576Z,438.75
2017-12-28T12:44:38.096Z,438.75
2017-12-28T12:44:38.620Z,438.75
2017-12-28T12:44:39.170Z,438.75
2017-12-28T12:44:39.690Z,438.75
2017-12-28T12:44:40.208Z,438.75
2017-12-28T12:44:40.744Z,444.38
2017-12-28T12:44:41.260Z,444.38
2017-12-28T12:44:41.801Z,444.38
2017-12-28T12:44:42.328Z,444.38
2017-12-28T12:44:42.852Z,444.38
2017-12-28T12:44:43.368Z,444.38
2017-12-28T12:44:43.893Z,444.38
2017-12-28T12:44:44.426Z,444.38
2017-12-28T12:44:44.962Z,450.00
2017-12-28T12:44:45.488Z,450.00
2017-12-28T12:44:46.020Z,450.00
2017-12-28T12:44:46.520Z,455.63
2017-12-28T12:44:47.040Z,455.63
2017-12-28T12:44:47.668Z,455.63
2017-12-28T12:44:48.169Z,455.63
2017-12-28T12:44:48.680Z,455.63
2017-12-28T12:44:49.299Z,461.25
2017-12-28T12:44:49.680Z,461.25
2017-12-28T12:44:50.214Z,461.25
2017-12-28T12:44:50.740Z,466.88
2017-12-28T12:44:51.276Z,466.88
2017-12-28T12:44:51.800Z,466.88
2017-12-28T12:44:52.311Z,466.88
2017-12-28T12:44:52.839Z,466.88
2017-12-28T12:44:53.378Z,472.50
2017-12-28T12:44:53.904Z,478.13
2017-12-28T12:44:54.462Z,472.50
2017-12-28T12:44:54.983Z,466.88
2017-12-28T12:44:55.510Z,466.88
2017-12-28T12:44:56.020Z,472.50
2017-12-28T12:44:56.552Z,466.88
2017-12-28T12:44:57.060Z,466.88
2017-12-28T12:44:57.575Z,461.25
2017-12-28T12:44:58.120Z,455.63
2017-12-28T12:44:58.639Z,461.25
2017-12-28T12:44:59.168Z,444.38
2017-12-28T12:44:59.680Z,466.88
2017-12-28T12:45:00.198Z,461.25
2017-12-28T12:45:00.728Z,478.13
2017-12-28T12:45:01.261Z,506.25
2017-12-28T12:45:01.784Z,517.50
2017-12-28T12:45:02.324Z,517.50
2017-12-28T12:45:02.864Z,517.50
2017-12-28T12:45:03.379Z,517.50
2017-12-28T12:45:03.943Z,511.88
2017-12-28T12:45:04.441Z,500.63
2017-12-28T12:45:04.973Z,500.63
2017-12-28T12:45:05.498Z,495.00
2017-12-28T12:45:06.040Z,495.00
2017-12-28T12:45:06.560Z,517.50
2017-12-28T12:45:07.088Z,511.88
2017-12-28T12:45:07.624Z,517.50
2017-12-28T12:45:08.170Z,523.13
2017-12-28T12:45:08.730Z,528.75
2017-12-28T12:45:09.240Z,528.75
2017-12-28T12:45:09.762Z,528.75
2017-12-28T12:45:10.288Z,523.13
2017-12-28T12:45:10.814Z,523.13
2017-12-28T12:45:11.374Z,523.13
2017-12-28T12:45:11.890Z,523.13
2017-12-28T12:45:12.414Z,523.13
2017-12-28T12:45:12.964Z,523.13
2017-12-28T12:45:13.480Z,523.13
2017-12-28T12:45:14.010Z,517.50
2017-12-28T12:45:14.521Z,517.50
2017-12-28T12:45:15.044Z,523.13
2017-12-28T12:45:15.550Z,523.13
2017-12-28T12:45:16.080Z,523.13
2017-12-28T12:45:16.590Z,528.75
2017-12-28T12:45:17.132Z,528.75
2017-12-28T12:45:17.660Z,517.50
2017-12-28T12:45:18.170Z,511.88
2017-12-28T12:45:18.692Z,511.88
2017-12-28T12:45:19.220Z,511.88
2017-12-28T12:45:19.771Z,528.75
2017-12-28T12:45:20.280Z,534.38
2017-12-28T12:45:20.803Z,534.38
2017-12-28T12:45:21.329Z,540.00
2017-12-28T12:45:21.859Z,540.00
2017-12-28T12:45:22.377Z,534.38
2017-12-28T12:45:22.900Z,528.75
2017-12-28T12:45:23.470Z,528.75
2017-12-28T12:45:24.000Z,523.13
2017-12-28T12:45:24.536Z,500.63
2017-12-28T12:45:25.034Z,506.25
2017-12-28T12:45:25.560Z,517.50
2017-12-28T12:45:26.096Z,517.50
2017-12-28T12:45:26.610Z,534.38
2017-12-28T12:45:27.120Z,534.38
2017-12-28T12:45:27.660Z,540.00
2017-12-28T12:45:28.180Z,540.00
2017-12-28T12:45:28.714Z,540.00
2017-12-28T12:45:29.253Z,540.00
2017-12-28T12:45:29.770Z,540.00
2017-12-28T12:45:30.280Z,540.00
2017-12-28T12:45:30.813Z,545.63
2017-12-28T12:45:31.330Z,545.63
2017-12-28T12:45:31.860Z,551.25
2017-12-28T12:45:32.422Z,551.25
2017-12-28T12:45:32.964Z,551.25
2017-12-28T12:45:33.490Z,551.25
2017-12-28T12:45:34.024Z,545.63
2017-12-28T12:45:34.588Z,551.25
2017-12-28T12:45:35.128Z,551.25
2017-12-28T12:45:35.672Z,556.88
2017-12-28T12:45:36.208Z,562.50
2017-12-28T12:45:36.746Z,562.50
2017-12-28T12:45:37.296Z,556.88
2017-12-28T12:45:37.810Z,556.88
2017-12-28T12:45:38.324Z,556.88
2017-12-28T12:45:38.849Z,545.63
2017-12-28T12:45:39.387Z,540.00
2017-12-28T12:45:39.932Z,540.00
2017-12-28T12:45:40.500Z,540.00
2017-12-28T12:45:41.034Z,551.25
2017-12-28T12:45:41.574Z,556.88
2017-12-28T12:45:42.080Z,568.13
2017-12-28T12:45:42.624Z,568.13
2017-12-28T12:45:43.156Z,568.13
2017-12-28T12:45:43.682Z,568.13
2017-12-28T12:45:44.201Z,568.13
2017-12-28T12:45:44.734Z,568.13
2017-12-28T12:45:45.253Z,562.50
2017-12-28T12:45:45.800Z,556.88
2017-12-28T12:45:46.336Z,551.25
2017-12-28T12:45:46.810Z,545.63
2017-12-28T12:45:47.334Z,540.00
2017-12-28T12:45:47.882Z,540.00
2017-12-28T12:45:48.416Z,545.63
2017-12-28T12:45:48.930Z,551.25
2017-12-28T12:45:49.447Z,551.25
2017-12-28T12:45:49.984Z,551.25
2017-12-28T12:45:50.531Z,545.63
2017-12-28T12:45:51.040Z,551.25
2017-12-28T12:45:51.560Z,551.25
2017-12-28T12:45:52.088Z,556.88
2017-12-28T12:45:52.610Z,551.25
2017-12-28T12:45:53.128Z,551.25
2017-12-28T12:45:53.654Z,545.63
2017-12-28T12:45:54.171Z,545.63
2017-12-28T12:45:54.724Z,540.00
2017-12-28T12:45:55.282Z,545.63
2017-12-28T12:45:55.814Z,545.63
2017-12-28T12:45:56.341Z,545.63
2017-12-28T12:45:56.875Z,545.63
2017-12-28T12:45:57.416Z,551.25
2017-12-28T12:45:57.942Z,551.25
2017-12-28T12:45:58.462Z,545.63
2017-12-28T12:45:58.954Z,545.63
2017-12-28T12:45:59.490Z,540.00
2017-12-28T12:46:00.018Z,540.00
2017-12-28T12:46:00.520Z,540.00
2017-12-28T12:46:01.045Z,540.00
2017-12-28T12:46:01.561Z,540.00
2017-12-28T12:46:02.088Z,540.00
2017-12-28T12:46:02.616Z,534.38
2017-12-28T12:46:03.254Z,534.38
2017-12-28T12:46:03.780Z,540.00
2017-12-28T12:46:04.320Z,540.00
2017-12-28T12:46:04.844Z,545.63
2017-12-28T12:46:05.364Z,540.00
2017-12-28T12:46:05.910Z,540.00
2017-12-28T12:46:06.440Z,534.38
2017-12-28T12:46:06.970Z,528.75
2017-12-28T12:46:07.496Z,523.13
2017-12-28T12:46:08.020Z,511.88
2017-12-28T12:46:08.570Z,511.88
2017-12-28T12:46:09.110Z,511.88
2017-12-28T12:46:09.641Z,511.88
2017-12-28T12:46:10.170Z,517.50
2017-12-28T12:46:10.691Z,523.13
2017-12-28T12:46:11.221Z,528.75
2017-12-28T12:46:11.754Z,534.38
2017-12-28T12:46:12.274Z,534.38
2017-12-28T12:46:12.802Z,534.38
2017-12-28T12:46:13.331Z,534.38
2017-12-28T12:46:13.889Z,540.00
2017-12-28T12:46:14.365Z,534.38
2017-12-28T12:46:14.889Z,534.38
2017-12-28T12:46:15.460Z,528.75
2017-12-28T12:46:15.948Z,523.13
2017-12-28T12:46:16.425Z,517.50
2017-12-28T12:46:17.009Z,506.25
2017-12-28T12:46:17.490Z,483.75
2017-12-28T12:46:18.020Z,472.50
2017-12-28T12:46:18.532Z,466.88
2017-12-28T12:46:19.063Z,461.25
2017-12-28T12:46:19.584Z,461.25
2017-12-28T12:46:20.130Z,461.25
2017-12-28T12:46:20.664Z,466.88
2017-12-28T12:46:21.209Z,478.13
2017-12-28T12:46:21.722Z,483.75
2017-12-28T12:46:22.240Z,472.50
2017-12-28T12:46:22.784Z,495.00
2017-12-28T12:46:23.300Z,523.13
2017-12-28T12:46:23.844Z,534.38
2017-12-28T12:46:24.368Z,534.38
2017-12-28T12:46:24.900Z,534.38
2017-12-28T12:46:25.450Z,545.63
2017-12-28T12:46:25.980Z,540.00
2017-12-28T12:46:26.536Z,540.00
2017-12-28T12:46:27.045Z,540.00
2017-12-28T12:46:27.568Z,534.38
2017-12-28T12:46:28.081Z,528.75
2017-12-28T12:46:28.628Z,523.13
2017-12-28T12:46:29.162Z,517.50
2017-12-28T12:46:29.700Z,506.25
2017-12-28T12:46:30.246Z,433.13
2017-12-28T12:46:30.760Z,168.75
2017-12-28T12:46:31.288Z,84.38
2017-12-28T12:46:31.784Z,90.00
2017-12-28T12:46:32.336Z,90.00
2017-12-28T12:46:32.860Z,90.00
2017-12-28T12:46:33.378Z,157.50
2017-12-28T12:46:33.908Z,303.75
2017-12-28T12:46:34.424Z,438.75
2017-12-28T12:46:34.950Z,444.38
2017-12-28T12:46:35.570Z,405.00
2017-12-28T12:46:36.200Z,101.25
2017-12-28T12:46:36.860Z,61.88
2017-12-28T12:46:37.378Z,61.88
2017-12-28T12:46:37.924Z,61.88
2017-12-28T12:46:38.444Z,61.88
2017-12-28T12:46:38.970Z,61.88
2017-12-28T12:46:39.480Z,61.88
2017-12-28T12:46:40.011Z,61.88
2017-12-28T12:46:40.524Z,61.88
2017-12-28T12:46:41.060Z,61.88
2017-12-28T12:46:41.600Z,61.88
2017-12-28T12:46:42.128Z,61.88
2017-12-28T12:46:42.654Z,61.88
2017-12-28T12:46:43.169Z,61.88
2017-12-28T12:46:43.700Z,61.88
2017-12-28T12:46:44.262Z,61.88
2017-12-28T12:46:44.822Z,61.88
2017-12-28T12:46:45.350Z,61.88
2017-12-28T12:46:45.880Z,61.88
2017-12-28T12:46:46.410Z,61.88
2017-12-28T12:46:46.940Z,61.88
2017-12-28T12:46:47.462Z,61.88
2017-12-28T12:46:47.994Z,61.88
2017-12-28T12:46:48.528Z,61.88
2017-12-28T12:46:49.060Z,61.88
2017-12-28T12:46:49.604Z,61.88
2017-12-28T12:46:50.136Z,61.88
2017-12-28T12:46:50.662Z,61.88
2017-12-28T12:46:51.202Z,61.88
2017-12-28T12:46:51.720Z,61.88
2017-12-28T12:46:52.248Z,61.88
2017-12-28T12:46:52.769Z,61.88
2017-12-28T12:46:53.306Z,61.88
2017-12-28T12:46:53.840Z,61.88
2017-12-28T12:46:54.360Z,61.88
2017-12-28T12:46:54.905Z,61.88
2017-12-28T12:46:55.428Z,61.88
2017-12-28T12:46:55.990Z,61.88
2017-12-28T12:46:56.524Z,61.88
2017-12-28T12:46:57.052Z,61.88
2017-12-28T12:46:57.570Z,61.88
2017-12-28T12:46:58.090Z,61.88
2017-12-28T12:46:58.620Z,61.88
2017-12-28T12:46:59.148Z,61.88
2017-12-28T12:46:59.680Z,61.88
2017-12-28T12:47:00.201Z,61.88
2017-12-28T12:47:00.760Z,61.88
2017-12-28T12:47:01.288Z,61.88
2017-12-28T12:47:01.820Z,61.88
2017-12-28T12:47:02.346Z,61.88
2017-12-28T12:47:02.989Z,61.88
2017-12-28T12:47:03.522Z,61.88
2017-12-28T12:47:04.052Z,61.88
2017-12-28T12:47:04.580Z,61.88
2017-12-28T12:47:05.117Z,61.88
2017-12-28T12:47:05.590Z,61.88
2017-12-28T12:47:06.131Z,61.88
2017-12-28T12:47:06.690Z,61.88
2017-12-28T12:47:07.216Z,61.88
2017-12-28T12:47:07.740Z,61.88
2017-12-28T12:47:08.301Z,61.88
2017-12-28T12:47:08.820Z,61.88
2017-12-28T12:47:09.387Z,61.88
2017-12-28T12:47:09.922Z,61.88
2017-12-28T12:47:10.450Z,61.88
2017-12-28T12:47:11.000Z,61.88
2017-12-28T12:47:11.543Z,61.88
2017-12-28T12:47:12.056Z,61.88
2017-12-28T12:47:12.604Z,61.88
2017-12-28T12:47:13.088Z,61.88
2017-12-28T12:47:13.622Z,61.88
2017-12-28T12:47:14.150Z,61.88
2017-12-28T12:47:14.681Z,61.88
2017-12-28T12:47:15.211Z,61.88
2017-12-28T12:47:15.745Z,61.88
2017-12-28T12:47:16.260Z,61.88
2017-12-28T12:47:16.804Z,61.88
2017-12-28T12:47:17.330Z,61.88
2017-12-28T12:47:17.896Z,61.88
2017-12-28T12:47:18.430Z,61.88
2017-12-28T12:47:18.950Z,61.88
2017-12-28T12:47:19.480Z,61.88
2017-12-28T12:47:20.012Z,61.88
2017-12-28T12:47:20.542Z,61.88
2017-12-28T12:47:21.074Z,61.88
2017-12-28T12:47:21.600Z,61.88
2017-12-28T12:47:22.120Z,61.88
2017-12-28T12:47:22.650Z,61.88
2017-12-28T12:47:23.180Z,56.25
2017-12-28T12:47:23.709Z,56.25
2017-12-28T12:47:24.256Z,56.25
2017-12-28T12:47:24.770Z,56.25
2017-12-28T12:47:25.288Z,56.25
2017-12-28T12:47:25.824Z,56.25
2017-12-28T12:47:26.346Z,56.25
2017-12-28T12:47:26.880Z,56.25
2017-12-28T12:47:27.400Z,56.25
2017-12-28T12:47:27.942Z,56.25
2017-12-28T12:47:28.501Z,56.25
2017-12-28T12:47:29.042Z,56.25
2017-12-28T12:47:29.569Z,56.25
2017-12-28T12:47:30.081Z,56.25
2017-12-28T12:47:30.590Z,56.25
2017-12-28T12:47:31.114Z,56.25
2017-12-28T12:47:31.640Z,56.25
2017-12-28T12:47:32.161Z,56.25
2017-12-28T12:47:32.700Z,56.25
2017-12-28T12:47:33.250Z,56.25
2017-12-28T12:47:33.804Z,56.25
2017-12-28T12:47:34.318Z,56.25
2017-12-28T12:47:34.844Z,56.25
2017-12-28T12:47:35.380Z,56.25
2017-12-28T12:47:35.910Z,56.25
2017-12-28T12:47:36.444Z,56.25
2017-12-28T12:47:37.018Z,56.25
2017-12-28T12:47:37.554Z,56.25
2017-12-28T12:47:37.974Z,56.25
2017-12-28T12:47:38.513Z,56.25
2017-12-28T12:47:39.064Z,56.25
2017-12-28T12:47:39.604Z,56.25
2017-12-28T12:47:40.136Z,56.25
2017-12-28T12:47:40.665Z,56.25
2017-12-28T12:47:41.190Z,56.25
2017-12-28T12:47:41.720Z,56.25
2017-12-28T12:47:42.259Z,56.25
2017-12-28T12:47:42.783Z,56.25
2017-12-28T12:47:43.316Z,56.25
2017-12-28T12:47:43.842Z,56.25
2017-12-28T12:47:44.364Z,56.25
2017-12-28T12:47:44.903Z,50.63
2017-12-28T12:47:45.424Z,50.63
2017-12-28T12:47:45.954Z,50.63
2017-12-28T12:47:46.480Z,50.63
2017-12-28T12:47:47.051Z,50.63
2017-12-28T12:47:47.590Z,50.63
2017-12-28T12:47:48.120Z,50.63
2017-12-28T12:47:48.652Z,50.63
2017-12-28T12:47:49.209Z,50.63
2017-12-28T12:47:49.710Z,50.63
2017-12-28T12:47:50.240Z,50.63
2017-12-28T12:47:50.788Z,50.63
2017-12-28T12:47:51.364Z,50.63
2017-12-28T12:47:51.884Z,50.63
2017-12-28T12:47:52.416Z,50.63
2017-12-28T12:47:52.940Z,50.63
2017-12-28T12:47:53.480Z,50.63
2017-12-28T12:47:53.994Z,50.63
2017-12-28T12:47:54.528Z,50.63
2017-12-28T12:47:55.060Z,50.63
2017-12-28T12:47:55.604Z,50.63
2017-12-28T12:47:56.091Z,50.63
2017-12-28T12:47:56.644Z,50.63
2017-12-28T12:47:57.180Z,50.63
2017-12-28T12:47:57.700Z,50.63
2017-12-28T12:47:58.256Z,50.63
2017-12-28T12:47:58.780Z,50.63
2017-12-28T12:47:59.304Z,50.63
2017-12-28T12:47:59.833Z,50.63
2017-12-28T12:48:00.358Z,50.63
2017-12-28T12:48:00.860Z,50.63
2017-12-28T12:48:01.360Z,50.63
2017-12-28T12:48:01.920Z,50.63
2017-12-28T12:48:02.456Z,45.00
2017-12-28T12:48:02.986Z,45.00
2017-12-28T12:48:03.500Z,45.00
2017-12-28T12:48:04.050Z,50.63
2017-12-28T12:48:04.593Z,45.00
2017-12-28T12:48:05.122Z,45.00
2017-12-28T12:48:05.664Z,45.00
2017-12-28T12:48:06.196Z,45.00
2017-12-28T12:48:06.710Z,50.63
2017-12-28T12:48:07.236Z,50.63
2017-12-28T12:48:07.760Z,50.63
2017-12-28T12:48:08.300Z,50.63
2017-12-28T12:48:08.830Z,50.63
2017-12-28T12:48:09.360Z,50.63
2017-12-28T12:48:09.889Z,50.63
2017-12-28T12:48:10.400Z,50.63
2017-12-28T12:48:10.937Z,50.63
2017-12-28T12:48:11.500Z,50.63
2017-12-28T12:48:12.055Z,50.63
2017-12-28T12:48:12.562Z,50.63
2017-12-28T12:48:13.108Z,50.63
2017-12-28T12:48:13.640Z,50.63
2017-12-28T12:48:14.170Z,50.63
2017-12-28T12:48:14.690Z,50.63
2017-12-28T12:48:15.200Z,50.63
2017-12-28T12:48:15.742Z,50.63
2017-12-28T12:48:16.250Z,50.63
2017-12-28T12:48:16.795Z,50.63
2017-12-28T12:48:17.336Z,50.63
2017-12-28T12:48:17.859Z,50.63
2017-12-28T12:48:18.423Z,50.63
2017-12-28T12:48:18.961Z,50.63
2017-12-28T12:48:19.499Z,50.63
2017-12-28T12:48:20.041Z,50.63
2017-12-28T12:48:20.560Z,50.63
2017-12-28T12:48:21.080Z,50.63
2017-12-28T12:48:21.620Z,50.63
2017-12-28T12:48:22.131Z,50.63
2017-12-28T12:48:22.684Z,50.63
2017-12-28T12:48:23.220Z,50.63
2017-12-28T12:48:23.773Z,50.63
2017-12-28T12:48:24.302Z,50.63
2017-12-28T12:48:24.844Z,50.63
2017-12-28T12:48:25.370Z,50.63
2017-12-28T12:48:25.896Z,50.63
2017-12-28T12:48:26.428Z,50.63
2017-12-28T12:48:26.934Z,50.63
2017-12-28T12:48:27.492Z,50.63
2017-12-28T12:48:28.036Z,50.63
2017-12-28T12:48:28.560Z,50.63
2017-12-28T12:48:29.098Z,50.63
2017-12-28T12:48:29.626Z,50.63
2017-12-28T12:48:30.176Z,50.63
2017-12-28T12:48:30.722Z,50.63
2017-12-28T12:48:31.240Z,50.63
2017-12-28T12:48:31.790Z,50.63
2017-12-28T12:48:32.346Z,50.63
2017-12-28T12:48:32.882Z,50.63
2017-12-28T12:48:33.412Z,50.63
2017-12-28T12:48:33.940Z,50.63
2017-12-28T12:48:34.468Z,50.63
2017-12-28T12:48:35.012Z,50.63
2017-12-28T12:48:35.540Z,50.63
2017-12-28T12:48:36.066Z,50.63
2017-12-28T12:48:36.601Z,50.63
2017-12-28T12:48:37.132Z,50.63
2017-12-28T12:48:37.651Z,50.63
2017-12-28T12:48:38.180Z,50.63
2017-12-28T12:48:38.702Z,50.63
2017-12-28T12:48:39.250Z,50.63
2017-12-28T12:48:39.774Z,50.63
2017-12-28T12:48:40.310Z,50.63
2017-12-28T12:48:40.830Z,56.25
2017-12-28T12:48:41.391Z,56.25
2017-12-28T12:48:41.921Z,56.25
2017-12-28T12:48:42.464Z,56.25
2017-12-28T12:48:42.982Z,56.25
2017-12-28T12:48:43.512Z,56.25
2017-12-28T12:48:44.035Z,56.25
2017-12-28T12:48:44.560Z,61.88
2017-12-28T12:48:45.070Z,61.88
2017-12-28T12:48:45.604Z,56.25
2017-12-28T12:48:46.128Z,56.25
2017-12-28T12:48:46.635Z,56.25
2017-12-28T12:48:47.168Z,90.00
2017-12-28T12:48:47.700Z,298.13
2017-12-28T12:48:48.210Z,371.25
2017-12-28T12:48:48.734Z,410.63
2017-12-28T12:48:49.251Z,416.25
2017-12-28T12:48:49.810Z,410.63
2017-12-28T12:48:50.329Z,405.00
2017-12-28T12:48:50.840Z,405.00
2017-12-28T12:48:51.350Z,405.00
2017-12-28T12:48:51.888Z,399.38
2017-12-28T12:48:52.410Z,405.00
2017-12-28T12:48:52.920Z,405.00
2017-12-28T12:48:53.456Z,405.00
2017-12-28T12:48:53.988Z,405.00
2017-12-28T12:48:54.510Z,399.38
2017-12-28T12:48:55.014Z,405.00
2017-12-28T12:48:55.574Z,405.00
2017-12-28T12:48:56.080Z,388.13
2017-12-28T12:48:56.610Z,371.25
2017-12-28T12:48:57.120Z,376.88
2017-12-28T12:48:57.660Z,388.13
2017-12-28T12:48:58.178Z,393.75
2017-12-28T12:48:58.722Z,399.38
2017-12-28T12:48:59.244Z,405.00
2017-12-28T12:48:59.778Z,405.00
2017-12-28T12:49:00.300Z,405.00
2017-12-28T12:49:00.840Z,399.38
2017-12-28T12:49:01.381Z,388.13
2017-12-28T12:49:01.902Z,354.38
2017-12-28T12:49:02.428Z,275.63
2017-12-28T12:49:02.957Z,298.13
2017-12-28T12:49:03.488Z,298.13
2017-12-28T12:49:04.022Z,292.50
2017-12-28T12:49:04.562Z,303.75
2017-12-28T12:49:05.080Z,315.00
2017-12-28T12:49:05.610Z,315.00
2017-12-28T12:49:06.156Z,320.63
2017-12-28T12:49:06.680Z,331.88
2017-12-28T12:49:07.208Z,331.88
2017-12-28T12:49:07.728Z,331.88
2017-12-28T12:49:08.250Z,331.88
2017-12-28T12:49:08.802Z,331.88
2017-12-28T12:49:09.320Z,331.88
2017-12-28T12:49:09.860Z,337.50
2017-12-28T12:49:10.370Z,331.88
2017-12-28T12:49:10.900Z,331.88
2017-12-28T12:49:11.420Z,286.88
2017-12-28T12:49:11.964Z,180.00
2017-12-28T12:49:12.480Z,191.25
2017-12-28T12:49:13.010Z,326.25
2017-12-28T12:49:13.561Z,337.50
2017-12-28T12:49:14.088Z,326.25
2017-12-28T12:49:14.600Z,337.50
2017-12-28T12:49:15.128Z,326.25
2017-12-28T12:49:15.660Z,331.88
2017-12-28T12:49:16.170Z,331.88
2017-12-28T12:49:16.720Z,326.25
2017-12-28T12:49:17.240Z,326.25
2017-12-28T12:49:17.773Z,326.25
2017-12-28T12:49:18.290Z,331.88
2017-12-28T12:49:18.820Z,331.88
2017-12-28T12:49:19.330Z,343.13
2017-12-28T12:49:19.862Z,326.25
2017-12-28T12:49:20.401Z,326.25
2017-12-28T12:49:20.964Z,326.25
2017-12-28T12:49:21.502Z,309.38
2017-12-28T12:49:22.020Z,320.63
2017-12-28T12:49:22.554Z,303.75
2017-12-28T12:49:23.090Z,286.88
2017-12-28T12:49:23.614Z,320.63
2017-12-28T12:49:24.120Z,286.88
2017-12-28T12:49:24.707Z,326.25
2017-12-28T12:49:25.208Z,331.88
2017-12-28T12:49:25.740Z,331.88
2017-12-28T12:49:26.260Z,326.25
2017-12-28T12:49:26.805Z,326.25
2017-12-28T12:49:27.314Z,343.13
2017-12-28T12:49:27.836Z,360.00
2017-12-28T12:49:28.361Z,388.13
2017-12-28T12:49:28.899Z,405.00
2017-12-28T12:49:29.399Z,416.25
2017-12-28T12:49:29.930Z,416.25
2017-12-28T12:49:30.440Z,416.25
2017-12-28T12:49:30.974Z,421.88
2017-12-28T12:49:31.522Z,427.50
2017-12-28T12:49:32.040Z,427.50
2017-12-28T12:49:32.574Z,427.50
2017-12-28T12:49:33.092Z,421.88
2017-12-28T12:49:33.620Z,421.88
2017-12-28T12:49:34.168Z,421.88
2017-12-28T12:49:34.712Z,405.00
2017-12-28T12:49:35.240Z,405.00
2017-12-28T12:49:35.788Z,405.00
2017-12-28T12:49:36.310Z,405.00
2017-12-28T12:49:36.840Z,405.00
2017-12-28T12:49:37.360Z,399.38
2017-12-28T12:49:37.889Z,399.38
2017-12-28T12:49:38.402Z,399.38
2017-12-28T12:49:38.934Z,405.00
2017-12-28T12:49:39.491Z,399.38
2017-12-28T12:49:40.008Z,399.38
2017-12-28T12:49:40.541Z,405.00
2017-12-28T12:49:41.066Z,405.00
2017-12-28T12:49:41.602Z,416.25
2017-12-28T12:49:42.120Z,405.00
2017-12-28T12:49:42.649Z,405.00
2017-12-28T12:49:43.161Z,416.25
2017-12-28T12:49:43.703Z,410.63
2017-12-28T12:49:44.270Z,405.00
2017-12-28T12:49:44.800Z,399.38
2017-12-28T12:49:45.323Z,399.38
2017-12-28T12:49:45.851Z,399.38
2017-12-28T12:49:46.360Z,405.00
2017-12-28T12:49:46.900Z,421.88
2017-12-28T12:49:47.430Z,433.13
2017-12-28T12:49:48.003Z,399.38
2017-12-28T12:49:48.494Z,399.38
2017-12-28T12:49:48.999Z,399.38
2017-12-28T12:49:49.530Z,410.63
2017-12-28T12:49:50.052Z,399.38
2017-12-28T12:49:50.580Z,399.38
2017-12-28T12:49:51.093Z,399.38
2017-12-28T12:49:51.624Z,399.38
2017-12-28T12:49:52.150Z,399.38
2017-12-28T12:49:52.680Z,399.38
2017-12-28T12:49:53.206Z,399.38
2017-12-28T12:49:53.721Z,399.38
2017-12-28T12:49:54.231Z,399.38
2017-12-28T12:49:54.764Z,405.00
2017-12-28T12:49:55.292Z,405.00
2017-12-28T12:49:55.844Z,399.38
2017-12-28T12:49:56.360Z,399.38
2017-12-28T12:49:56.894Z,399.38
2017-12-28T12:49:57.410Z,399.38
2017-12-28T12:49:57.942Z,399.38
2017-12-28T12:49:58.484Z,399.38
2017-12-28T12:49:59.000Z,399.38
2017-12-28T12:49:59.535Z,399.38
2017-12-28T12:50:00.044Z,405.00
2017-12-28T12:50:00.581Z,405.00
2017-12-28T12:50:01.110Z,405.00
2017-12-28T12:50:01.631Z,399.38
2017-12-28T12:50:02.164Z,405.00
2017-12-28T12:50:02.700Z,405.00
2017-12-28T12:50:03.232Z,393.75
2017-12-28T12:50:03.760Z,360.00
2017-12-28T12:50:04.288Z,365.63
2017-12-28T12:50:04.824Z,393.75
2017-12-28T12:50:05.348Z,416.25
2017-12-28T12:50:05.874Z,421.88
2017-12-28T12:50:06.400Z,410.63
2017-12-28T12:50:06.949Z,410.63
2017-12-28T12:50:07.480Z,410.63
2017-12-28T12:50:08.001Z,416.25
2017-12-28T12:50:08.530Z,416.25
2017-12-28T12:50:09.041Z,421.88
2017-12-28T12:50:09.564Z,427.50
2017-12-28T12:50:10.080Z,421.88
2017-12-28T12:50:10.614Z,421.88
2017-12-28T12:50:11.120Z,421.88
2017-12-28T12:50:11.654Z,416.25
2017-12-28T12:50:12.171Z,421.88
2017-12-28T12:50:12.710Z,433.13
2017-12-28T12:50:13.220Z,444.38
2017-12-28T12:50:13.750Z,450.00
2017-12-28T12:50:14.296Z,450.00
2017-12-28T12:50:14.820Z,450.00
2017-12-28T12:50:15.376Z,450.00
2017-12-28T12:50:15.888Z,450.00
2017-12-28T12:50:16.390Z,450.00
2017-12-28T12:50:16.920Z,444.38
2017-12-28T12:50:17.458Z,433.13
2017-12-28T12:50:17.970Z,405.00
2017-12-28T12:50:18.524Z,382.50
2017-12-28T12:50:19.040Z,382.50
2017-12-28T12:50:19.580Z,360.00
2017-12-28T12:50:20.090Z,326.25
2017-12-28T12:50:20.619Z,331.88
2017-12-28T12:50:21.148Z,337.50
2017-12-28T12:50:21.683Z,348.75
2017-12-28T12:50:22.190Z,354.38
2017-12-28T12:50:22.724Z,315.00
2017-12-28T12:50:23.250Z,376.88
2017-12-28T12:50:23.779Z,343.13
2017-12-28T12:50:24.300Z,343.13
2017-12-28T12:50:24.829Z,360.00
2017-12-28T12:50:25.360Z,393.75
2017-12-28T12:50:25.910Z,388.13
2017-12-28T12:50:26.441Z,388.13
2017-12-28T12:50:26.960Z,382.50
2017-12-28T12:50:27.490Z,376.88
2017-12-28T12:50:28.010Z,371.25
2017-12-28T12:50:28.540Z,371.25
2017-12-28T12:50:29.068Z,371.25
2017-12-28T12:50:29.603Z,371.25
2017-12-28T12:50:30.128Z,371.25
2017-12-28T12:50:30.665Z,405.00
2017-12-28T12:50:31.160Z,427.50
2017-12-28T12:50:31.693Z,410.63
2017-12-28T12:50:32.210Z,416.25
2017-12-28T12:50:32.760Z,410.63
2017-12-28T12:50:33.278Z,416.25
2017-12-28T12:50:33.804Z,421.88
2017-12-28T12:50:34.320Z,416.25
2017-12-28T12:50:34.849Z,405.00
2017-12-28T12:50:35.370Z,410.63
2017-12-28T12:50:35.912Z,410.63
2017-12-28T12:50:36.440Z,416.25